x

Southeast Hawaii - 205 Nm Southeast Of Hilo, Hi (51004) Wave Buoy

11:50pm - Wed 10th Feb 2016 All times are HST. -10 hours from GMT.

  • Sig Wave height 10.2ft
  • Swell Direction
  • Peak Period 19s
  • Average Period 9s
  • Wind
    16mph, 18mph gusts
  • Sea Temp 77°f
  • Air Temp 76°f
  • Sea Pressure 1015.9mb
  • Southeast Hawaii - 205 Nm Southeast Of Hilo, Hi
  • Southeast Hawaii - 205 Nm Southeast Of Hilo, Hi

More Historic Weather Station data

Upgrade to MSW Pro to gain access to the past 30 days of data for over 8000 Wavebouys and Weather Stations around the globe.

Join Pro

Comparision Forecast

View Surf forecast
   
Wed 02/10 11:50pm 10ft 19s 9s 16 18 mph 1015.9mb 77f 76f
10:50pm 10.5ft 19s 9s 16 18 mph 1016.2mb 77f 76f
9:50pm 11ft 19s 10s 16 18 mph 1016.3mb 77f 75f
8:50pm 10ft 21s 9s 16 18 mph 1016.3mb 77f 76f
7:50pm 9ft 19s 9s 16 20 mph 1016.1mb 77f 75f
6:50pm 9ft 13s 8s 18 20 mph 1015.5mb 77f 76f
5:50pm 9ft 12s 8s 13 16 mph 1015mb 77f 75f
4:50pm 9ft 12s 8s 16 18 mph 1014.4mb 77f 76f
3:50pm 8ft 13s 8s 16 18 mph 1014.1mb 78f 75f
2:50pm 8ft 13s 7s 18 20 mph 1014.3mb 78f 75f
1:50pm 8ft 12s 7s 18 22 mph 1014.9mb 77f 74f
12:50pm 8ft 11s 7s 18 22 mph 1015.9mb 77f 75f
11:50am 7.5ft 11s 7s 16 20 mph 1017.1mb 77f 76f
10:50am 8ft 12s 7s 16 18 mph 1017.9mb 77f 76f
9:50am 7.5ft 13s 7s 16 20 mph 1018.4mb 77f 76f
8:50am 8ft 12s 8s 16 18 mph 1018.1mb 77f 76f
7:50am 8ft 13s 8s 16 18 mph 1017.8mb 77f 76f
6:50am 8ft 11s 8s 16 18 mph 1017.2mb 77f 76f
5:50am 8.5ft 12s 8s 16 18 mph 1016.8mb 77f 76f
4:50am 8.5ft 13s 8s 16 18 mph 1016.1mb 77f 76f
3:50am 8.5ft 13s 8s 16 18 mph 1015.9mb 77f 76f
2:50am 8.5ft 14s 8s 16 20 mph 1016mb 77f 76f
1:50am 8.5ft 13s 8s 16 18 mph 1016.4mb 77f 76f
12:50am 10.5ft 13s 9s 16 18 mph 1016.8mb 77f 76f
Tue 02/09 11:50pm 9ft 13s 8s 16 18 mph 1017mb 77f 76f
10:50pm 10ft 12s 8s 16 18 mph 1017mb 77f 76f
9:50pm 9ft 14s 8s 16 18 mph 1016.6mb 77f 76f
8:50pm 9ft 15s 8s 18 20 mph 1016.4mb 77f 76f
7:50pm 11ft 14s 9s 16 20 mph 1016mb 77f 76f
6:50pm 10.5ft 15s 9s 16 20 mph 1015.2mb 77f 76f
5:50pm 10ft 15s 9s 16 18 mph 1014.6mb 78f 76f
4:50pm 10.5ft 14s 9s 13 16 mph 1014.5mb 78f 76f
3:50pm 10ft 12s 8s 11 16 mph 1014mb 78f 76f
2:50pm 10ft 14s 9s 11 13 mph 1014.1mb 78f 76f
1:50pm 10.5ft 13s 8s 13 16 mph 1014.5mb 78f 76f
12:50pm 11ft 14s 8s 13 18 mph 1015.1mb 78f 76f
11:50am 10.5ft 13s 8s 16 20 mph 1016mb 77f 76f
10:50am 11ft 12s 8s 16 18 mph 1016.9mb 77f 76f
9:50am 10.5ft 12s 8s 16 18 mph 1017.4mb 77f 76f
8:50am 11ft 13s 9s 16 20 mph 1016.9mb 77f 76f
7:50am 11ft 14s 9s 18 20 mph 1016.4mb 77f 75f
6:50am 11ft 12s 8s 16 18 mph 1016mb 77f 75f
5:50am 11ft 12s 9s 13 18 mph 1015.8mb 77f 75f
4:50am 12ft 12s 9s 16 20 mph 1014.8mb 77f 75f
3:50am 11.5ft 12s 9s 16 18 mph 1014.3mb 77f 75f
2:50am 11.5ft 12s 9s 16 18 mph 1014.2mb 77f 75f
1:50am 12ft 11s 9s 18 20 mph 1014.4mb 77f 75f
12:50am 11ft 12s 8s 16 20 mph 1015.5mb 77f 75f
Mon 02/08 11:50pm 11.5ft 12s 8s 16 20 mph 1015.8mb 77f 75f
10:50pm 11ft 11s 9s 16 20 mph 1016mb 77f 75f
9:50pm 11ft 11s 8s 16 20 mph 1015.7mb 77f 75f
8:50pm 11ft 12s 8s 18 20 mph 1015.2mb 77f 75f
7:50pm 11ft 13s 8s 18 20 mph 1014.4mb 77f 75f
6:50pm 11ft 12s 8s 16 20 mph 1013.7mb 77f 75f
5:50pm 11ft 12s 8s 18 20 mph 1013mb 77f 74f
4:50pm 11ft 12s 8s 18 22 mph 1012.6mb 77f 75f
3:50pm 11ft 13s 8s 18 20 mph 1012.4mb 77f 75f
2:50pm 10.5ft 13s 8s 18 22 mph 1012.6mb 77f 74f
1:50pm 10.5ft 11s 8s 20 22 mph 1012.8mb 77f 74f
12:50pm 11.5ft 13s 8s 16 20 mph 1013.7mb 77f 74f
11:50am 9.5ft 14s 8s 18 22 mph 1014.6mb 77f 74f
10:50am 10ft 14s 8s 18 22 mph 1016mb 77f 74f
9:50am 10ft 11s 8s 20 25 mph 1016.4mb 77f 74f
8:50am 10ft 10s 7s 20 22 mph 1015.9mb 77f 74f
7:50am 10ft 10s 8s 20 22 mph 1015.4mb 77f 74f
6:50am 10ft 10s 7s 18 25 mph 1014.5mb 77f 74f
5:50am 11ft 10s 8s 20 25 mph 1013.7mb 77f 74f
4:50am 10ft 10s 7s 20 25 mph 1013.6mb 77f 75f
3:50am 10ft 9s 7s 22 25 mph 1013.2mb 77f 74f
2:50am 11ft 10s 7s 20 25 mph 1013.4mb 77f 74f
1:50am 10ft 10s 7s 20 25 mph 1014.2mb 77f 75f
12:50am 10ft 7s 7s 20 25 mph 1014.8mb 77f 75f
Sun 02/07 11:50pm 9ft 7s 6s 22 27 mph 1015.1mb 77f 75f
10:50pm 8ft 11s 6s 22 27 mph 1015mb 77f 75f
9:50pm 9ft 7s 6s 22 31 mph 1014.9mb 77f 74f
8:50pm 8ft 11s 6s 22 29 mph 1014.5mb 77f 74f
7:50pm 7ft 11s 6s 25 29 mph 1013.7mb 77f 73f
6:50pm 7ft 10s 6s 25 27 mph 1013.2mb 77f 74f
5:50pm 6.5ft 10s 7s 18 20 mph 1012.8mb 78f 75f
4:50pm 7ft 10s 7s 18 22 mph 1012.4mb 78f 75f
3:50pm 7ft 10s 7s 18 20 mph 1011.5mb 78f 75f
2:50pm 6ft 11s 8s 16 20 mph 1011.5mb 78f 76f
1:50pm 6ft 10s 8s 13 16 mph 1011.9mb 78f 76f
12:50pm 6ft 9s 8s 13 16 mph 1012.9mb 78f 76f
11:50am 6.5ft 10s 8s 9 11 mph 1013.5mb 78f 76f